Time;durP1;ratioP1;P1;durP2;ratioP2;P2;SDS_P1;SDS_P2;PMS_P1;PMS_P2;Temp;Humidity;BMP_temperature;BMP_pressure;BME280_temperature;BME280_humidity;BME280_pressure;Samples;Min_cycle;Max_cycle;Signal;HPM_P1;HPM_P2
2023/05/29 00:00:06;;;;;;;6.05;2.75;;;16.50;99.90;;;;;;5071351;28;20162;-51
2023/05/29 00:02:33;;;;;;;5.65;2.92;;;16.50;99.90;;;;;;5071357;28;20751;-51
2023/05/29 00:04:58;;;;;;;6.43;3.00;;;16.30;99.90;;;;;;5070897;28;20628;-51
2023/05/29 00:07:24;;;;;;;6.05;3.25;;;16.40;99.90;;;;;;5071121;28;20232;-51
2023/05/29 00:09:49;;;;;;;7.03;3.10;;;16.50;99.90;;;;;;5071199;28;20177;-51
2023/05/29 00:12:15;;;;;;;5.53;2.80;;;16.40;99.90;;;;;;5071645;28;20174;-51
2023/05/29 00:14:40;;;;;;;4.45;2.50;;;16.30;99.90;;;;;;5071418;28;20166;-51
2023/05/29 00:17:06;;;;;;;2.90;2.55;;;16.10;99.90;;;;;;5071136;28;20166;-51
2023/05/29 00:19:32;;;;;;;3.42;2.40;;;16.30;99.90;;;;;;5071077;28;20173;-51
2023/05/29 00:21:57;;;;;;;4.85;2.50;;;16.30;99.90;;;;;;5070964;28;20291;-51
2023/05/29 00:24:23;;;;;;;4.97;2.67;;;16.40;99.90;;;;;;5071162;28;20166;-51
2023/05/29 00:26:48;;;;;;;7.85;3.10;;;16.10;99.90;;;;;;5071086;28;20178;-51
2023/05/29 00:29:15;;;;;;;4.15;2.42;;;16.10;99.90;;;;;;5071499;28;20167;-51
2023/05/29 00:31:40;;;;;;;4.88;3.40;;;16.10;99.90;;;;;;5070990;28;20209;-51
2023/05/29 00:34:06;;;;;;;5.38;2.50;;;16.00;99.90;;;;;;5071004;28;20205;-51
2023/05/29 00:36:31;;;;;;;2.78;2.13;;;15.90;99.90;;;;;;5070992;28;20182;-51
2023/05/29 00:38:57;;;;;;;4.78;2.53;;;15.90;99.90;;;;;;5072906;28;20208;-51
2023/05/29 00:41:23;;;;;;;6.72;3.20;;;15.90;99.90;;;;;;5074633;28;20202;-50
2023/05/29 00:43:48;;;;;;;3.50;2.58;;;15.70;99.90;;;;;;5074946;28;20173;-51
2023/05/29 00:46:16;;;;;;;5.22;2.40;;;15.60;99.90;;;;;;5075087;28;20193;-51
2023/05/29 00:48:42;;;;;;;6.03;2.72;;;15.70;99.90;;;;;;5075103;28;20642;-51
2023/05/29 00:51:10;;;;;;;7.68;2.45;;;15.80;99.90;;;;;;5074546;28;20208;-51
2023/05/29 00:53:36;;;;;;;5.38;2.55;;;15.70;99.90;;;;;;5074715;28;20544;-51
2023/05/29 00:56:02;;;;;;;3.95;2.58;;;15.40;99.90;;;;;;5074412;28;20249;-52
2023/05/29 00:58:28;;;;;;;5.90;2.60;;;15.80;99.90;;;;;;5074369;28;20176;-51
2023/05/29 01:00:53;;;;;;;4.28;2.67;;;15.60;99.90;;;;;;5074365;28;20204;-51
2023/05/29 01:03:20;;;;;;;5.70;2.55;;;15.60;99.90;;;;;;5074290;28;20181;-51
2023/05/29 01:05:48;;;;;;;6.45;2.75;;;15.50;99.90;;;;;;5074336;28;20295;-51
2023/05/29 01:08:14;;;;;;;3.88;2.70;;;15.50;99.90;;;;;;5074463;28;20744;-51
2023/05/29 01:10:42;;;;;;;4.38;2.78;;;15.40;99.90;;;;;;5074129;28;20253;-51
2023/05/29 01:13:35;;;;;;;4.90;2.78;;;15.40;99.90;;;;;;5074403;28;20182;-51
2023/05/29 01:16:12;;;;;;;4.05;2.22;;;15.40;99.90;;;;;;5072277;28;20252;-51
2023/05/29 01:19:10;;;;;;;3.20;2.30;;;15.30;99.90;;;;;;5073993;28;20184;-51
2023/05/29 01:21:45;;;;;;;4.28;2.55;;;;;;;;;;5073829;28;20300;-51
2023/05/29 01:24:37;;;;;;;4.38;2.97;;;15.30;99.90;;;;;;5074521;28;20223;-51
2023/05/29 01:27:10;;;;;;;6.57;3.20;;;15.20;99.90;;;;;;5073828;28;20162;-51
2023/05/29 01:29:39;;;;;;;4.82;2.50;;;15.20;99.90;;;;;;5073888;28;20165;-51
2023/05/29 01:32:05;;;;;;;5.28;3.30;;;15.00;99.90;;;;;;5073733;28;20166;-51
2023/05/29 01:34:31;;;;;;;5.13;2.70;;;15.20;99.90;;;;;;5073823;28;20185;-51
2023/05/29 01:36:57;;;;;;;5.57;3.25;;;15.10;99.90;;;;;;5073695;28;20628;-51
2023/05/29 01:39:23;;;;;;;5.30;3.03;;;15.10;99.90;;;;;;5073623;28;20571;-51
2023/05/29 01:41:52;;;;;;;5.13;3.10;;;15.10;99.90;;;;;;5073528;28;20197;-51
2023/05/29 01:44:19;;;;;;;3.20;2.70;;;15.00;99.90;;;;;;5073674;28;20170;-51
2023/05/29 01:46:45;;;;;;;5.95;2.45;;;15.00;99.90;;;;;;5073467;28;20178;-51
2023/05/29 01:49:12;;;;;;;4.80;2.65;;;14.80;99.90;;;;;;5073593;28;20169;-51
2023/05/29 01:51:40;;;;;;;4.20;2.63;;;15.10;99.90;;;;;;5073429;28;20174;-51
2023/05/29 01:54:06;;;;;;;4.63;3.15;;;15.00;99.90;;;;;;5073388;28;20287;-51
2023/05/29 01:56:33;;;;;;;7.20;3.28;;;14.80;99.90;;;;;;5073607;28;20226;-51
2023/05/29 01:58:59;;;;;;;4.18;2.90;;;;;;;;;;5073296;28;20162;-51
2023/05/29 02:01:25;;;;;;;4.93;3.10;;;14.70;99.90;;;;;;5073378;28;20209;-51
2023/05/29 02:03:51;;;;;;;4.15;2.83;;;15.10;99.90;;;;;;5073219;28;20173;-51
2023/05/29 02:06:17;;;;;;;7.97;2.88;;;14.80;99.90;;;;;;5072993;28;20202;-51
2023/05/29 02:08:42;;;;;;;4.05;3.33;;;14.60;99.90;;;;;;5073430;28;20277;-51
2023/05/29 02:11:08;;;;;;;4.07;2.95;;;14.70;99.90;;;;;;5073104;28;20158;-51
2023/05/29 02:13:34;;;;;;;6.35;3.20;;;14.60;99.90;;;;;;5073355;28;20533;-51
2023/05/29 02:15:59;;;;;;;6.53;2.83;;;14.60;99.90;;;;;;5072898;28;20174;-51
2023/05/29 02:18:25;;;;;;;4.28;2.45;;;14.50;99.90;;;;;;5072890;28;20181;-51
2023/05/29 02:20:51;;;;;;;7.05;3.17;;;;;;;;;;5072875;28;20193;-51
2023/05/29 02:23:17;;;;;;;4.32;2.65;;;14.40;99.90;;;;;;5072842;28;20639;-51
2023/05/29 02:25:42;;;;;;;4.55;3.00;;;14.30;99.90;;;;;;5073257;28;20173;-51
2023/05/29 02:28:08;;;;;;;6.22;3.00;;;14.20;99.90;;;;;;5072730;28;20306;-51
2023/05/29 02:30:35;;;;;;;4.97;2.60;;;14.20;99.90;;;;;;5072692;28;20219;-51
2023/05/29 02:33:00;;;;;;;4.30;2.63;;;14.00;99.90;;;;;;5072801;28;20174;-51
2023/05/29 02:35:26;;;;;;;5.93;2.80;;;14.20;99.90;;;;;;5072615;28;20700;-51
2023/05/29 02:37:52;;;;;;;4.47;2.70;;;14.20;99.90;;;;;;5071288;28;20631;-51
2023/05/29 02:40:18;;;;;;;6.95;3.38;;;14.20;99.90;;;;;;5072449;28;20166;-51
2023/05/29 02:42:44;;;;;;;9.50;3.10;;;13.90;99.90;;;;;;5073064;28;20213;-51
2023/05/29 02:45:10;;;;;;;5.40;3.00;;;14.00;99.90;;;;;;5072390;28;20169;-51
2023/05/29 02:47:36;;;;;;;4.95;2.80;;;13.80;99.90;;;;;;5072308;28;20170;-51
2023/05/29 02:50:02;;;;;;;9.02;2.78;;;13.90;99.90;;;;;;5072271;28;20677;-51
2023/05/29 02:52:30;;;;;;;6.38;3.15;;;13.80;99.90;;;;;;5072418;28;20227;-51
2023/05/29 02:54:56;;;;;;;6.85;2.60;;;13.70;99.90;;;;;;5072142;28;20702;-51
2023/05/29 02:57:22;;;;;;;5.20;2.80;;;13.70;99.90;;;;;;5072386;28;20170;-50
2023/05/29 02:59:49;;;;;;;4.38;2.40;;;13.80;99.90;;;;;;5072019;28;20188;-51
2023/05/29 03:02:14;;;;;;;9.43;3.13;;;;;;;;;;5071717;28;20686;-51
2023/05/29 03:04:40;;;;;;;9.55;3.25;;;13.40;99.90;;;;;;5072433;28;20194;-51
2023/05/29 03:07:06;;;;;;;10.57;3.10;;;;;;;;;;5071595;28;20217;-50
2023/05/29 03:09:32;;;;;;;10.90;2.80;;;13.70;99.90;;;;;;5071941;28;20216;-51
2023/05/29 03:11:58;;;;;;;5.63;2.60;;;13.50;99.90;;;;;;5071977;28;20173;-51
2023/05/29 03:14:23;;;;;;;12.07;3.03;;;13.50;99.90;;;;;;5070620;28;20231;-51
2023/05/29 03:16:50;;;;;;;8.18;2.92;;;13.40;99.90;;;;;;5072084;28;20184;-51
2023/05/29 03:19:16;;;;;;;5.82;2.80;;;13.30;99.90;;;;;;5072068;28;20170;-51
2023/05/29 03:21:41;;;;;;;8.32;3.38;;;13.20;99.90;;;;;;5072172;28;20259;-52
2023/05/29 03:24:07;;;;;;;6.65;2.78;;;;;;;;;;5071787;28;20158;-51
2023/05/29 03:26:33;;;;;;;13.05;2.88;;;13.30;99.90;;;;;;5071695;28;20166;-52
2023/05/29 03:28:58;;;;;;;8.60;3.10;;;13.40;99.90;;;;;;5071988;28;20193;-51
2023/05/29 03:31:24;;;;;;;6.47;3.15;;;13.10;99.90;;;;;;5071562;28;20166;-51
2023/05/29 03:33:50;;;;;;;8.88;3.03;;;13.30;99.90;;;;;;5071878;28;20257;-51
2023/05/29 03:36:18;;;;;;;8.90;2.70;;;13.30;99.90;;;;;;5071548;28;20619;-51
2023/05/29 03:38:44;;;;;;;6.30;2.53;;;13.10;99.90;;;;;;5071929;28;20166;-51
2023/05/29 03:41:10;;;;;;;11.75;2.95;;;13.20;99.90;;;;;;5071748;28;20226;-51
2023/05/29 03:43:36;;;;;;;12.40;3.05;;;13.30;99.90;;;;;;5071639;28;20247;-51
2023/05/29 03:46:01;;;;;;;9.20;2.78;;;13.30;99.90;;;;;;5071691;28;20170;-51
2023/05/29 03:48:27;;;;;;;7.20;2.47;;;13.60;99.90;;;;;;5071701;28;20591;-51
2023/05/29 03:50:53;;;;;;;11.07;3.25;;;13.30;99.90;;;;;;5071450;28;20193;-51
2023/05/29 03:53:18;;;;;;;8.82;3.85;;;;;;;;;;5071314;28;20233;-51
2023/05/29 03:55:45;;;;;;;7.65;2.90;;;;;;;;;;5071792;28;20166;-51
2023/05/29 03:58:12;;;;;;;8.50;2.65;;;13.30;99.90;;;;;;5072018;28;20166;-52
2023/05/29 04:00:38;;;;;;;10.13;3.40;;;13.10;99.90;;;;;;5071166;28;20178;-51
2023/05/29 04:03:03;;;;;;;9.55;2.72;;;;;;;;;;5071224;28;20178;-51
2023/05/29 04:05:30;;;;;;;8.27;2.65;;;;;;;;;;5071375;28;20194;-51
2023/05/29 04:07:56;;;;;;;10.95;3.10;;;13.10;99.90;;;;;;5071103;28;20304;-51
2023/05/29 04:10:22;;;;;;;8.07;2.72;;;13.30;99.90;;;;;;5071337;28;20253;-51
2023/05/29 04:12:47;;;;;;;8.55;2.85;;;13.30;99.90;;;;;;5073403;28;20267;-51
2023/05/29 04:15:13;;;;;;;15.50;3.92;;;13.40;99.90;;;;;;5075665;28;20623;-51
2023/05/29 04:17:38;;;;;;;8.00;2.67;;;13.40;99.90;;;;;;5075316;28;20173;-51
2023/05/29 04:20:08;;;;;;;12.30;3.67;;;13.40;99.90;;;;;;5075154;28;20189;-51
2023/05/29 04:22:37;;;;;;;8.50;2.67;;;13.20;99.90;;;;;;5075011;28;20228;-51
2023/05/29 04:25:06;;;;;;;13.05;3.33;;;13.30;99.90;;;;;;5075134;28;20536;-51
2023/05/29 04:27:32;;;;;;;9.52;2.60;;;13.30;99.90;;;;;;5074996;28;20703;-51
2023/05/29 04:29:58;;;;;;;10.70;2.97;;;;;;;;;;5075054;28;20257;-51
2023/05/29 04:32:24;;;;;;;7.45;3.10;;;13.70;99.90;;;;;;5074902;28;20166;-51
2023/05/29 04:34:51;;;;;;;10.55;3.13;;;13.70;99.90;;;;;;5075108;28;20506;-51
2023/05/29 04:37:17;;;;;;;7.97;2.83;;;13.70;99.90;;;;;;5075045;28;20589;-52
2023/05/29 04:39:43;;;;;;;8.25;3.55;;;13.80;99.90;;;;;;5075175;28;20623;-52
2023/05/29 04:42:08;;;;;;;7.47;2.42;;;13.90;99.90;;;;;;5074705;28;20205;-51
2023/05/29 04:44:34;;;;;;;9.27;2.75;;;14.10;99.90;;;;;;5073435;28;20195;-51
2023/05/29 04:47:02;;;;;;;13.70;3.60;;;13.90;99.90;;;;;;5074648;28;20170;-51
2023/05/29 04:49:28;;;;;;;11.70;3.25;;;14.20;99.90;;;;;;5074565;28;20162;-51
2023/05/29 04:51:54;;;;;;;5.88;3.08;;;14.10;99.90;;;;;;5074448;28;20269;-51
2023/05/29 04:54:21;;;;;;;8.57;2.53;;;14.40;99.90;;;;;;5074499;28;20168;-51
2023/05/29 04:56:47;;;;;;;9.63;3.03;;;14.40;99.90;;;;;;5074393;28;20185;-51
2023/05/29 04:59:13;;;;;;;11.30;3.05;;;14.50;99.90;;;;;;5074771;28;20631;-51
2023/05/29 05:01:39;;;;;;;9.40;2.88;;;14.50;99.90;;;;;;5074302;28;20292;-51
2023/05/29 05:04:04;;;;;;;11.77;3.20;;;14.40;99.90;;;;;;5074289;28;20170;-51
2023/05/29 05:06:30;;;;;;;9.73;2.90;;;14.60;99.90;;;;;;5074302;28;20221;-51
2023/05/29 05:08:56;;;;;;;10.35;3.15;;;14.20;99.90;;;;;;5074552;28;20162;-51
2023/05/29 05:11:23;;;;;;;6.63;2.53;;;14.20;99.90;;;;;;5074431;28;20176;-51
2023/05/29 05:13:49;;;;;;;10.65;2.85;;;14.60;99.90;;;;;;5074426;28;20180;-51
2023/05/29 05:16:16;;;;;;;8.70;2.85;;;;;;;;;;5074073;28;20635;-51
2023/05/29 05:18:42;;;;;;;15.27;3.40;;;;;;;;;;5074460;28;20182;-51
2023/05/29 05:21:08;;;;;;;6.15;3.00;;;14.60;99.90;;;;;;5074018;28;20206;-51
2023/05/29 05:23:33;;;;;;;8.50;3.03;;;14.40;99.90;;;;;;5073451;28;20639;-51
2023/05/29 05:25:59;;;;;;;7.38;2.85;;;14.70;99.90;;;;;;5073732;28;20528;-51
2023/05/29 05:28:25;;;;;;;10.02;2.80;;;14.50;99.90;;;;;;5073921;28;20628;-51
2023/05/29 05:30:51;;;;;;;7.47;3.45;;;14.60;99.90;;;;;;5073788;28;20166;-51
2023/05/29 05:33:16;;;;;;;11.45;3.28;;;14.80;99.90;;;;;;5074072;28;20201;-51
2023/05/29 05:35:42;;;;;;;11.77;3.22;;;14.70;99.90;;;;;;5074174;28;20637;-51
2023/05/29 05:38:07;;;;;;;9.95;2.90;;;14.80;99.90;;;;;;5073613;28;20184;-51
2023/05/29 05:40:33;;;;;;;13.18;3.42;;;14.90;99.90;;;;;;5073621;28;20169;-51
2023/05/29 05:42:59;;;;;;;13.02;3.35;;;15.10;99.90;;;;;;5073539;28;20205;-51
2023/05/29 05:45:24;;;;;;;12.70;2.72;;;15.00;99.90;;;;;;5073530;28;20596;-51
2023/05/29 05:47:50;;;;;;;11.25;2.65;;;14.70;99.90;;;;;;5073327;28;20166;-51
2023/05/29 05:50:15;;;;;;;10.32;3.28;;;14.80;99.90;;;;;;5073482;28;20166;-51
2023/05/29 05:52:41;;;;;;;17.42;4.05;;;14.60;99.90;;;;;;5073995;28;20525;-51
2023/05/29 05:55:07;;;;;;;11.48;3.20;;;14.70;99.90;;;;;;5073362;28;20249;-51
2023/05/29 05:57:33;;;;;;;11.68;2.92;;;14.60;99.90;;;;;;5073259;28;20162;-51
2023/05/29 06:00:00;;;;;;;19.70;4.72;;;14.80;99.90;;;;;;5073291;28;20180;-51
2023/05/29 06:02:25;;;;;;;10.45;2.67;;;14.70;99.90;;;;;;5073189;28;20194;-51
2023/05/29 06:04:51;;;;;;;9.10;2.90;;;14.90;99.90;;;;;;5073515;28;20591;-51
2023/05/29 06:07:17;;;;;;;8.02;2.90;;;15.00;99.90;;;;;;5073069;28;20213;-51
2023/05/29 06:09:43;;;;;;;9.73;3.00;;;14.80;99.90;;;;;;5073626;28;20635;-51
2023/05/29 06:12:10;;;;;;;16.17;2.92;;;;;;;;;;5073381;28;20568;-51
2023/05/29 06:14:35;;;;;;;8.75;2.67;;;15.10;99.90;;;;;;5073300;28;20162;-50
2023/05/29 06:17:01;;;;;;;9.77;2.60;;;15.00;99.90;;;;;;5070200;28;20223;-51
2023/05/29 06:19:27;;;;;;;11.75;3.30;;;;;;;;;;5071149;28;20546;-52
2023/05/29 06:21:53;;;;;;;14.40;4.05;;;15.50;99.90;;;;;;5071047;28;20289;-52
2023/05/29 06:24:18;;;;;;;6.22;3.10;;;15.30;99.90;;;;;;5070976;28;20637;-52
2023/05/29 06:26:44;;;;;;;12.55;3.53;;;;;;;;;;5070996;28;20664;-51
2023/05/29 06:29:10;;;;;;;9.65;3.55;;;;;;;;;;5071496;28;20178;-53
2023/05/29 06:31:36;;;;;;;14.32;3.47;;;;;;;;;;5070797;28;20541;-50
2023/05/29 06:34:02;;;;;;;12.38;3.50;;;;;;;;;;5070898;28;20170;-49
2023/05/29 06:36:28;;;;;;;9.60;3.40;;;;;;;;;;5069829;28;20177;-51
2023/05/29 06:38:54;;;;;;;13.25;3.50;;;15.90;99.90;;;;;;5070679;28;20278;-52
2023/05/29 06:41:20;;;;;;;9.25;3.58;;;;;;;;;;5070818;28;20205;-50
2023/05/29 06:43:46;;;;;;;15.95;3.80;;;;;;;;;;5070728;28;20184;-52
2023/05/29 06:46:12;;;;;;;9.90;2.58;;;15.80;99.90;;;;;;5071068;28;20618;-52
2023/05/29 06:48:38;;;;;;;17.92;3.78;;;15.90;99.90;;;;;;5070553;28;20300;-52
2023/05/29 06:51:09;;;;;;;11.55;3.58;;;;;;;;;;5070903;28;20849;-54
2023/05/29 06:53:36;;;;;;;8.88;3.08;;;;;;;;;;5070494;28;20228;-53
2023/05/29 06:56:01;;;;;;;10.85;3.60;;;16.20;99.90;;;;;;5070754;28;20181;-53
2023/05/29 06:58:27;;;;;;;16.40;3.55;;;;;;;;;;5070613;28;20162;-56
2023/05/29 07:00:53;;;;;;;13.57;3.05;;;;;;;;;;5068867;28;20181;-53
2023/05/29 07:03:19;;;;;;;12.85;3.33;;;16.60;99.90;;;;;;5070269;28;20182;-53
2023/05/29 07:05:45;;;;;;;14.75;3.80;;;16.50;99.90;;;;;;5070432;28;20174;-53
2023/05/29 07:08:21;;;;;;;9.02;2.90;;;;;;;;;;5107461;27;20295;-51
2023/05/29 07:10:48;;;;;;;10.48;2.95;;;;;;;;;;5107570;28;20221;-51
2023/05/29 07:13:16;;;;;;;12.13;3.72;;;;;;;;;;5107478;28;20221;-51
2023/05/29 07:15:42;;;;;;;15.55;3.92;;;;;;;;;;5107874;28;20560;-51
2023/05/29 07:18:08;;;;;;;12.18;3.25;;;;;;;;;;5107361;28;20180;-51
2023/05/29 07:20:34;;;;;;;7.90;3.33;;;;;;;;;;5107525;28;20462;-51
2023/05/29 07:22:59;;;;;;;13.00;3.25;;;16.70;99.90;;;;;;5107301;28;20176;-51
2023/05/29 07:25:26;;;;;;;11.30;3.90;;;;;;;;;;5107613;28;20690;-51
2023/05/29 07:27:52;;;;;;;9.27;3.20;;;17.10;99.90;;;;;;5107005;28;20204;-51
2023/05/29 07:30:18;;;;;;;9.07;3.45;;;;;;;;;;5107094;28;20214;-51
2023/05/29 07:32:44;;;;;;;7.18;2.90;;;;;;;;;;5107553;28;20163;-51
2023/05/29 07:35:10;;;;;;;11.52;3.20;;;;;;;;;;5107505;28;20173;-51
2023/05/29 07:37:35;;;;;;;13.40;3.28;;;17.40;99.90;;;;;;5107012;28;20169;-51
2023/05/29 07:40:01;;;;;;;10.80;4.15;;;17.60;99.90;;;;;;5107089;28;20176;-51
2023/05/29 07:42:27;;;;;;;10.30;3.55;;;17.60;99.90;;;;;;5107155;28;20240;-52
2023/05/29 07:44:52;;;;;;;14.70;3.42;;;17.70;99.90;;;;;;5106800;28;20183;-51
2023/05/29 07:47:18;;;;;;;11.55;3.67;;;17.50;99.90;;;;;;5106856;28;20564;-51
2023/05/29 07:49:44;;;;;;;8.60;3.28;;;;;;;;;;5106665;28;20180;-51
2023/05/29 07:52:09;;;;;;;13.10;3.45;;;17.30;99.90;;;;;;5107125;28;20173;-51
2023/05/29 07:54:35;;;;;;;12.43;3.40;;;17.70;99.90;;;;;;5106709;28;20169;-51
2023/05/29 07:57:02;;;;;;;8.90;3.60;;;17.80;99.90;;;;;;5105845;28;20251;-51
2023/05/29 07:59:28;;;;;;;11.95;3.47;;;;;;;;;;5106504;28;20183;-52
2023/05/29 08:01:57;;;;;;;17.90;3.78;;;;;;;;;;5107033;28;20171;-52
2023/05/29 08:04:24;;;;;;;13.10;3.72;;;;;;;;;;5106607;28;20536;-51
2023/05/29 08:06:50;;;;;;;6.53;3.28;;;17.90;99.90;;;;;;5114291;28;20762;-51
2023/05/29 08:09:17;;;;;;;10.77;3.30;;;18.10;99.90;;;;;;5126936;28;20693;-51
2023/05/29 08:11:45;;;;;;;14.10;3.45;;;18.10;99.90;;;;;;5127288;28;20190;-51
2023/05/29 08:14:11;;;;;;;15.27;3.42;;;18.10;99.90;;;;;;5126990;28;20703;-51
2023/05/29 08:16:37;;;;;;;15.07;3.65;;;;;;;;;;5126989;28;20208;-51
2023/05/29 08:19:03;;;;;;;11.95;4.05;;;;;;;;;;5116499;28;20175;-51
2023/05/29 08:21:32;;;;;;;10.27;3.20;;;18.60;99.90;;;;;;5113123;28;20193;-52
2023/05/29 08:23:58;;;;;;;11.80;2.95;;;18.50;99.90;;;;;;5112906;28;20169;-51
2023/05/29 08:26:24;;;;;;;11.13;3.92;;;;;;;;;;5112991;28;20633;-51
2023/05/29 08:28:50;;;;;;;10.85;3.45;;;18.30;99.90;;;;;;5113165;28;20184;-51
2023/05/29 08:31:16;;;;;;;13.63;3.38;;;18.50;99.90;;;;;;5112823;28;20165;-51
2023/05/29 08:33:41;;;;;;;11.50;4.13;;;18.40;99.90;;;;;;5112165;28;20191;-51
2023/05/29 08:36:08;;;;;;;9.18;3.90;;;18.50;99.90;;;;;;5112685;28;20698;-51
2023/05/29 08:38:35;;;;;;;9.75;4.05;;;;;;;;;;5112639;28;20173;-52
2023/05/29 08:41:01;;;;;;;11.18;3.20;;;;;;;;;;5112392;28;20168;-52
2023/05/29 08:43:30;;;;;;;14.13;3.30;;;18.60;99.90;;;;;;5112599;28;20199;-51
2023/05/29 08:46:00;;;;;;;11.85;3.50;;;18.90;99.90;;;;;;5112542;28;20168;-52
2023/05/29 08:48:27;;;;;;;9.82;3.30;;;19.00;99.90;;;;;;5112548;28;20180;-50
2023/05/29 08:50:55;;;;;;;9.13;4.00;;;18.80;99.90;;;;;;5094249;28;20196;-52
2023/05/29 08:53:21;;;;;;;12.70;3.90;;;18.90;99.90;;;;;;5112566;28;20179;-52
2023/05/29 08:55:52;;;;;;;7.97;3.63;;;18.90;99.90;;;;;;5112306;28;20164;-51
2023/05/29 08:58:21;;;;;;;20.33;3.78;;;19.10;99.90;;;;;;5112433;28;20200;-51
2023/05/29 09:00:48;;;;;;;8.80;3.35;;;19.30;99.90;;;;;;5107405;28;20161;-51
2023/05/29 09:03:14;;;;;;;12.52;3.85;;;19.40;99.90;;;;;;5073563;28;20642;-52
2023/05/29 09:05:40;;;;;;;11.90;3.85;;;;;;;;;;5074574;28;20173;-51
2023/05/29 09:08:08;;;;;;;10.07;3.55;;;19.30;99.90;;;;;;5091306;28;20221;-51
2023/05/29 09:10:34;;;;;;;7.65;3.05;;;;;;;;;;5091520;28;20161;-51
2023/05/29 09:13:00;;;;;;;11.43;3.45;;;19.00;99.90;;;;;;5091711;28;20222;-52
2023/05/29 09:15:26;;;;;;;14.57;4.57;;;;;;;;;;5091504;28;20165;-51
2023/05/29 09:17:53;;;;;;;8.27;3.40;;;19.50;99.90;;;;;;5091566;28;20211;-51
2023/05/29 09:20:24;;;;;;;10.10;4.45;;;19.30;99.90;;;;;;5091519;28;20193;-52
2023/05/29 09:23:09;;;;;;;14.50;3.88;;;19.70;99.90;;;;;;5091433;28;20260;-51
2023/05/29 09:25:35;;;;;;;8.10;3.67;;;;;;;;;;5091604;28;20196;-52
2023/05/29 09:28:07;;;;;;;8.20;3.22;;;19.80;99.90;;;;;;5091317;28;20209;-52
2023/05/29 09:30:43;;;;;;;12.70;3.85;;;19.60;99.90;;;;;;5090110;28;20165;-52
2023/05/29 09:33:10;;;;;;;13.65;3.78;;;19.70;99.90;;;;;;5091339;28;20263;-50
2023/05/29 09:35:41;;;;;;;11.52;3.70;;;19.80;99.90;;;;;;5091341;28;20512;-51
2023/05/29 09:38:08;;;;;;;10.55;3.90;;;19.70;99.90;;;;;;5090904;28;20169;-52
2023/05/29 09:40:36;;;;;;;8.48;3.65;;;19.80;99.90;;;;;;5091035;28;20534;-52
2023/05/29 09:43:08;;;;;;;7.82;3.67;;;19.80;99.90;;;;;;5072780;28;20260;-52
2023/05/29 09:45:40;;;;;;;8.10;3.10;;;19.70;99.90;;;;;;5091217;28;20165;-52
2023/05/29 09:48:07;;;;;;;12.50;3.70;;;19.90;99.90;;;;;;5090860;28;20196;-52
2023/05/29 09:50:34;;;;;;;7.43;3.45;;;20.00;99.90;;;;;;5091206;28;20218;-52
2023/05/29 09:53:01;;;;;;;9.05;3.38;;;20.00;99.90;;;;;;5090883;28;20172;-52
2023/05/29 09:55:28;;;;;;;11.77;3.65;;;20.10;99.90;;;;;;5091045;28;20192;-52
2023/05/29 09:57:54;;;;;;;10.10;3.55;;;20.30;99.90;;;;;;5090929;28;20290;-52
2023/05/29 10:00:21;;;;;;;15.20;4.30;;;20.30;99.90;;;;;;5090661;28;20169;-52
2023/05/29 10:02:48;;;;;;;10.27;4.07;;;20.30;99.90;;;;;;5091048;28;20174;-52
2023/05/29 10:05:15;;;;;;;12.23;3.67;;;20.00;99.90;;;;;;5091050;28;20173;-52
2023/05/29 10:07:44;;;;;;;11.48;3.88;;;20.20;99.90;;;;;;5090788;28;20236;-52
2023/05/29 10:10:12;;;;;;;17.52;3.33;;;20.30;99.90;;;;;;5090574;28;20158;-51
2023/05/29 10:12:45;;;;;;;14.20;3.88;;;;;;;;;;5090359;28;20161;-52
2023/05/29 10:15:15;;;;;;;9.07;2.97;;;20.30;99.90;;;;;;5090895;28;20173;-52
2023/05/29 10:18:09;;;;;;;9.80;3.78;;;20.50;99.90;;;;;;5090750;28;20169;-51
2023/05/29 10:20:36;;;;;;;12.40;3.95;;;20.70;99.90;;;;;;5090353;28;20265;-51
2023/05/29 10:23:03;;;;;;;8.23;3.10;;;20.70;99.90;;;;;;5090264;28;20690;-52
2023/05/29 10:25:31;;;;;;;6.85;3.03;;;20.70;99.90;;;;;;5090518;28;20234;-52
2023/05/29 10:27:57;;;;;;;11.93;3.30;;;;;;;;;;5090091;28;20209;-52
2023/05/29 10:30:26;;;;;;;10.75;3.83;;;20.90;99.90;;;;;;5072066;28;20177;-52
2023/05/29 10:33:13;;;;;;;11.70;3.30;;;20.90;99.90;;;;;;5090175;28;20248;-52
2023/05/29 10:36:01;;;;;;;13.63;3.97;;;21.20;99.90;;;;;;5090149;28;20624;-52
2023/05/29 10:38:27;;;;;;;11.13;3.55;;;;;;;;;;5090246;28;20165;-52
2023/05/29 10:40:53;;;;;;;10.32;3.53;;;;;;;;;;5089854;28;20248;-52
2023/05/29 10:43:32;;;;;;;12.05;3.45;;;20.90;99.90;;;;;;5090329;28;20184;-52
2023/05/29 10:45:58;;;;;;;11.95;3.90;;;20.80;99.90;;;;;;5089901;28;20169;-51
2023/05/29 10:48:28;;;;;;;8.70;3.45;;;;;;;;;;5089829;28;20169;-52
2023/05/29 10:50:54;;;;;;;10.95;3.85;;;;;;;;;;5089920;28;20180;-52
2023/05/29 10:53:25;;;;;;;12.73;3.35;;;21.00;99.90;;;;;;5089939;28;20825;-52
2023/05/29 10:55:51;;;;;;;12.23;3.78;;;21.60;99.90;;;;;;5089887;28;20173;-51
2023/05/29 10:58:25;;;;;;;15.52;4.63;;;21.50;99.90;;;;;;5089744;28;20177;-52
2023/05/29 11:00:57;;;;;;;7.25;3.40;;;21.70;99.90;;;;;;5089651;28;20169;-52
2023/05/29 11:03:31;;;;;;;11.63;4.03;;;21.50;99.90;;;;;;5089567;28;20716;-52
2023/05/29 11:05:58;;;;;;;7.60;3.00;;;;;;;;;;5089603;28;20540;-52
2023/05/29 11:08:56;;;;;;;12.25;4.32;;;22.00;99.90;;;;;;5089966;28;20189;-52
2023/05/29 11:11:28;;;;;;;14.88;3.95;;;22.20;99.90;;;;;;5089827;28;20259;-52
2023/05/29 11:13:55;;;;;;;15.10;3.90;;;22.20;99.90;;;;;;5089635;28;20157;-52
2023/05/29 11:16:29;;;;;;;8.18;3.35;;;22.50;99.90;;;;;;5089354;28;20207;-52
2023/05/29 11:18:56;;;;;;;12.30;3.20;;;22.30;99.90;;;;;;5090059;28;20177;-52
2023/05/29 11:21:43;;;;;;;11.40;3.80;;;22.30;99.90;;;;;;5089352;28;20172;-52
2023/05/29 11:24:33;;;;;;;14.90;4.40;;;22.30;99.90;;;;;;5089398;28;20169;-52
2023/05/29 11:27:04;;;;;;;15.25;4.05;;;22.30;99.90;;;;;;5089440;28;20215;-52
2023/05/29 11:29:29;;;;;;;12.52;3.97;;;22.50;99.90;;;;;;5089725;28;20344;-52
2023/05/29 11:32:02;;;;;;;11.30;3.60;;;22.80;99.90;;;;;;5089847;28;20613;-52
2023/05/29 11:34:29;;;;;;;10.38;3.47;;;;;;;;;;5089571;28;20212;-52
2023/05/29 11:36:57;;;;;;;11.38;3.45;;;22.70;99.90;;;;;;5089771;28;20202;-52
2023/05/29 11:39:23;;;;;;;8.88;4.05;;;;;;;;;;5089689;28;20173;-52
2023/05/29 11:41:52;;;;;;;12.25;4.15;;;22.80;99.90;;;;;;5089406;28;20173;-52
2023/05/29 11:44:18;;;;;;;10.90;3.97;;;;;;;;;;5089351;28;20161;-52
2023/05/29 11:46:44;;;;;;;7.78;3.47;;;;;;;;;;5089159;28;20204;-51
2023/05/29 11:49:10;;;;;;;14.00;3.92;;;22.70;99.90;;;;;;5089769;28;20201;-52
2023/05/29 11:51:36;;;;;;;12.10;3.90;;;;;;;;;;5089265;28;20165;-52
2023/05/29 11:54:02;;;;;;;11.15;3.40;;;22.90;99.90;;;;;;5091150;28;20170;-52
2023/05/29 11:56:30;;;;;;;7.35;3.38;;;22.90;99.90;;;;;;5092827;28;20181;-51
2023/05/29 11:58:59;;;;;;;11.48;3.95;;;22.80;99.00;;;;;;5093049;28;20510;-52
2023/05/29 12:01:25;;;;;;;11.55;3.67;;;22.70;98.70;;;;;;5093033;28;20177;-52
2023/05/29 12:03:52;;;;;;;9.25;4.00;;;;;;;;;;5093018;28;20165;-52
2023/05/29 12:06:37;;;;;;;11.35;4.03;;;23.00;99.90;;;;;;5093000;28;20213;-51
2023/05/29 12:09:04;;;;;;;7.63;3.28;;;22.90;98.70;;;;;;5074576;28;20212;-51
2023/05/29 12:11:29;;;;;;;10.18;3.50;;;23.10;99.90;;;;;;5092636;28;20177;-52
2023/05/29 12:14:00;;;;;;;13.55;4.10;;;23.20;99.50;;;;;;5093112;28;20222;-52
2023/05/29 12:16:27;;;;;;;9.93;3.78;;;;;;;;;;5093015;28;20177;-52
2023/05/29 12:18:53;;;;;;;16.33;3.60;;;;;;;;;;5074499;28;20497;-52
2023/05/29 12:21:21;;;;;;;12.07;4.03;;;23.20;98.10;;;;;;5092772;28;20689;-52
2023/05/29 12:23:47;;;;;;;10.93;3.65;;;22.60;97.70;;;;;;5094851;28;20200;-52
2023/05/29 12:26:12;;;;;;;8.18;3.42;;;23.00;98.90;;;;;;5098957;28;20212;-51
2023/05/29 12:28:46;;;;;;;9.73;2.80;;;22.90;97.40;;;;;;5112408;28;20176;-51
2023/05/29 12:31:12;;;;;;;8.30;3.05;;;;;;;;;;5112250;28;20176;-52
2023/05/29 12:33:43;;;;;;;8.82;3.28;;;22.60;98.00;;;;;;5105030;28;20177;-51
2023/05/29 12:36:10;;;;;;;11.60;3.40;;;22.70;97.30;;;;;;5109864;28;20531;-52
2023/05/29 12:38:50;;;;;;;9.75;3.08;;;22.70;97.30;;;;;;5100045;28;20212;-51
2023/05/29 12:41:26;;;;;;;10.20;3.15;;;22.50;98.70;;;;;;5090993;28;20224;-52
2023/05/29 12:43:56;;;;;;;7.65;2.80;;;22.50;98.10;;;;;;5092290;28;20195;-51
2023/05/29 12:46:23;;;;;;;12.77;4.03;;;22.60;98.90;;;;;;5092103;28;20193;-52
2023/05/29 12:48:49;;;;;;;8.88;3.67;;;22.90;97.10;;;;;;5073881;28;20180;-51
2023/05/29 12:51:15;;;;;;;7.72;3.70;;;;;;;;;;5092376;28;20170;-51
2023/05/29 12:53:41;;;;;;;9.00;3.13;;;23.20;97.70;;;;;;5092416;28;20179;-51
2023/05/29 12:56:06;;;;;;;10.80;3.38;;;23.30;97.80;;;;;;5091874;28;20248;-51
2023/05/29 12:58:32;;;;;;;10.55;3.65;;;;;;;;;;5091731;28;20257;-51
2023/05/29 13:00:58;;;;;;;13.35;3.50;;;23.20;96.10;;;;;;5092046;28;20161;-51
2023/05/29 13:03:23;;;;;;;10.02;3.97;;;23.20;96.60;;;;;;5091737;28;20230;-51